Time;durP1;ratioP1;P1;durP2;ratioP2;P2;SDS_P1;SDS_P2;PMS_P1;PMS_P2;Temp;Humidity;BMP_temperature;BMP_pressure;BME280_temperature;BME280_humidity;BME280_pressure;Samples;Min_cycle;Max_cycle;Signal;HPM_P1;HPM_P2
2022/01/24 00:01:26;;;;;;;0.70;0.60;;;;;;;;;;5102937;28;20188;-63
2022/01/24 00:03:56;;;;;;;1.00;0.90;;;;;;;;;;5110018;28;20203;-63
2022/01/24 00:06:24;;;;;;;0.77;0.60;;;;;;;;;;5119925;28;20214;-63
2022/01/24 00:08:51;;;;;;;1.10;0.77;;;;;;;;;;5099300;28;20315;-63
2022/01/24 00:11:24;;;;;;;0.80;0.80;;;;;;;;;;5111568;28;20226;-63
2022/01/24 00:14:40;;;;;;;0.90;0.90;;;;;;;;;;5116066;28;20199;-63
2022/01/24 00:17:08;;;;;;;1.27;0.90;;;;;;;;;;5117461;28;20204;-63
2022/01/24 00:27:51;;;;;;;1.10;1.00;;;;;;;;;;5109354;28;20260;-63
2022/01/24 00:30:19;;;;;;;1.10;1.00;;;;;;;;;;5114206;28;20223;-63
2022/01/24 00:32:47;;;;;;;1.02;0.98;;;;;;;;;;5103040;28;20195;-63
2022/01/24 00:35:15;;;;;;;1.00;0.90;;;;;;;;;;5115513;28;20219;-63
2022/01/24 00:37:42;;;;;;;0.98;0.88;;;;;;;;;;5098680;28;20200;-63
2022/01/24 00:40:12;;;;;;;0.90;0.90;;;;;;;;;;5118033;28;20192;-63
2022/01/24 00:42:50;;;;;;;1.75;0.90;;;;;;;;;;5109876;28;20508;-63
2022/01/24 00:45:27;;;;;;;1.00;0.90;;;;;;;;;;5098826;28;20249;-63
2022/01/24 00:48:21;;;;;;;0.80;0.80;;;;;;;;;;5106088;28;20199;-63
2022/01/24 00:53:50;;;;;;;0.80;0.80;;;;;;;;;;5100946;28;20360;-63
2022/01/24 00:56:17;;;;;;;1.05;0.95;;;;;;;;;;5098369;28;20205;-63
2022/01/24 00:58:44;;;;;;;1.10;1.08;;;;;;;;;;5098059;28;20204;-63
2022/01/24 01:01:12;;;;;;;1.30;0.90;;;;;;;;;;5097691;28;20219;-63
2022/01/24 01:03:41;;;;;;;0.95;0.95;;;;;;;;;;5102667;28;20203;-63
2022/01/24 01:06:10;;;;;;;0.80;0.80;;;;;;;;;;5109310;28;20210;-63
2022/01/24 01:19:42;;;;;;;1.00;0.90;;;;;;;;;;5118133;28;20289;-63
2022/01/24 01:22:13;;;;;;;1.10;1.00;;;;;;;;;;5118232;28;20203;-63
2022/01/24 01:24:46;;;;;;;0.85;0.85;;;;;;;;;;5117906;28;20211;-63
2022/01/24 01:27:17;;;;;;;1.30;1.20;;;;;;;;;;5118459;28;20306;-63
2022/01/24 01:29:52;;;;;;;1.05;1.00;;;;;;;;;;5116920;28;20223;-63
2022/01/24 01:32:33;;;;;;;0.65;0.65;;;;;;;;;;5111668;28;20230;-63
2022/01/24 01:35:17;;;;;;;0.75;0.75;;;;;;;;;;5113794;28;20206;-63
2022/01/24 01:54:46;;;;;;;0.88;0.80;;;;;;;;;;5135668;28;20189;-65
2022/01/24 01:57:16;;;;;;;0.93;0.90;;;;;;;;;;5135921;27;20202;-65
2022/01/24 01:59:43;;;;;;;0.63;0.63;;;;;;;;;;5135897;27;20233;-65
2022/01/24 02:02:11;;;;;;;1.08;0.90;;;;;;;;;;5135982;27;20210;-65
2022/01/24 02:04:38;;;;;;;0.85;0.85;;;;;;;;;;5134857;27;20201;-65
2022/01/24 02:07:06;;;;;;;0.80;0.80;;;;;;;;;;5134684;27;20209;-65
2022/01/24 02:09:34;;;;;;;0.90;0.90;;;;;;;;;;5135213;27;20207;-66
2022/01/24 02:12:01;;;;;;;1.50;0.93;;;;;;;;;;5135458;27;20209;-65
2022/01/24 02:14:38;;;;;;;0.85;0.85;;;;;;;;;;5135604;27;20210;-65
2022/01/24 02:17:10;;;;;;;0.90;0.90;;;;;;;;;;5135098;27;20383;-66
2022/01/24 02:19:52;;;;;;;1.02;0.80;;;;;;;;;;5135742;27;20219;-64
2022/01/24 02:25:23;;;;;;;0.80;0.80;;;;;;;;;;5124764;27;20202;-63
2022/01/24 02:27:56;;;;;;;1.73;0.90;;;;;;;;;;5135211;27;20652;-66
2022/01/24 02:33:08;;;;;;;0.75;0.75;;;;;;;;;;5127736;27;20202;-65
2022/01/24 02:35:36;;;;;;;0.75;0.75;;;;;;;;;;5135237;27;20202;-64
2022/01/24 02:38:10;;;;;;;1.02;0.80;;;;;;;;;;5134323;27;20291;-65
2022/01/24 02:40:38;;;;;;;0.80;0.80;;;;;;;;;;5135028;27;20221;-63
2022/01/24 02:48:22;;;;;;;0.80;0.80;;;;;;;;;;5113256;27;20190;-64
2022/01/24 02:48:49;;;;;;;0.80;0.80;;;;;;;;;;5134880;28;20676;-64
2022/01/24 02:51:45;;;;;;;1.17;0.80;;;;;;;;;;5125367;27;20199;-64
2022/01/24 02:54:20;;;;;;;0.80;0.80;;;;;;;;;;5120881;27;20226;-64
2022/01/24 02:56:47;;;;;;;0.70;0.70;;;;;;;;;;5121273;28;20203;-65
2022/01/24 02:59:14;;;;;;;1.10;0.88;;;;;;;;;;5121192;28;20245;-63
2022/01/24 03:01:42;;;;;;;0.70;0.70;;;;;;;;;;5121108;28;20574;-63
2022/01/24 03:04:09;;;;;;;0.75;0.75;;;;;;;;;;5120946;28;20199;-63
2022/01/24 03:06:37;;;;;;;0.88;0.88;;;;;;;;;;5120742;28;20195;-64
2022/01/24 03:09:05;;;;;;;0.80;0.80;;;;;;;;;;5120016;28;20195;-65
2022/01/24 03:11:55;;;;;;;0.80;0.80;;;;;;;;;;5119492;28;20263;-63
2022/01/24 03:14:24;;;;;;;1.40;0.93;;;;;;;;;;5120439;28;20203;-65
2022/01/24 03:16:51;;;;;;;0.70;0.70;;;;;;;;;;5120089;28;20207;-63
2022/01/24 03:19:19;;;;;;;1.52;0.75;;;;;;;;;;5103499;28;20226;-64
2022/01/24 03:21:47;;;;;;;0.63;0.63;;;;;;;;;;5120309;28;20214;-64
2022/01/24 03:24:15;;;;;;;0.90;0.80;;;;;;;;;;5120086;28;20570;-64
2022/01/24 03:26:44;;;;;;;0.77;0.77;;;;;;;;;;5120021;28;20218;-64
2022/01/24 03:29:12;;;;;;;0.80;0.80;;;;;;;;;;5120271;28;20195;-63
2022/01/24 03:31:40;;;;;;;0.80;0.80;;;;;;;;;;5119888;28;20199;-64
2022/01/24 03:34:08;;;;;;;0.65;0.65;;;;;;;;;;5119401;28;20206;-66
2022/01/24 03:36:35;;;;;;;1.17;0.80;;;;;;;;;;5120029;28;20597;-63
2022/01/24 03:39:02;;;;;;;0.88;0.88;;;;;;;;;;5119352;28;20647;-64
2022/01/24 03:41:30;;;;;;;0.70;0.70;;;;;;;;;;5120501;28;20203;-64
2022/01/24 03:44:03;;;;;;;0.70;0.70;;;;;;;;;;5119820;27;20214;-64
2022/01/24 03:46:46;;;;;;;0.60;0.60;;;;;;;;;;5119948;27;20207;-63
2022/01/24 03:49:45;;;;;;;0.65;0.60;;;;;;;;;;5119196;28;20195;-63
2022/01/24 03:52:08;;;;;;;0.63;0.63;;;;;;;;;;5118840;28;20294;-66
2022/01/24 03:54:35;;;;;;;0.80;0.80;;;;;;;;;;5119422;28;20272;-64
2022/01/24 03:57:03;;;;;;;0.70;0.70;;;;;;;;;;5119613;28;20210;-63
2022/01/24 03:59:32;;;;;;;0.70;0.70;;;;;;;;;;5119805;28;20227;-64
2022/01/24 04:02:00;;;;;;;1.02;0.75;;;;;;;;;;5118944;28;20203;-63
2022/01/24 04:04:27;;;;;;;0.82;0.82;;;;;;;;;;5119384;28;20211;-64
2022/01/24 04:06:55;;;;;;;0.60;0.60;;;;;;;;;;5119514;28;20203;-63
2022/01/24 04:09:22;;;;;;;0.82;0.82;;;;;;;;;;5118908;28;20195;-64
2022/01/24 04:11:53;;;;;;;0.68;0.68;;;;;;;;;;5119378;28;20497;-64
2022/01/24 04:14:30;;;;;;;0.80;0.80;;;;;;;;;;5119363;28;20206;-63
2022/01/24 04:17:21;;;;;;;0.70;0.70;;;;;;;;;;5119462;28;20213;-63
2022/01/24 04:22:37;;;;;;;0.80;0.80;;;;;;;;;;5118586;28;20296;-65
2022/01/24 04:25:06;;;;;;;0.85;0.82;;;;;;;;;;5119113;28;20206;-63
2022/01/24 04:27:33;;;;;;;0.80;0.80;;;;;;;;;;5118875;28;20203;-63
2022/01/24 04:30:01;;;;;;;0.90;0.90;;;;;;;;;;5117420;28;20191;-63
2022/01/24 04:32:29;;;;;;;0.85;0.70;;;;;;;;;;5117585;28;20489;-63
2022/01/24 04:34:57;;;;;;;0.88;0.88;;;;;;;;;;5118950;28;20203;-65
2022/01/24 04:37:24;;;;;;;0.80;0.80;;;;;;;;;;5118170;28;20195;-63
2022/01/24 04:39:51;;;;;;;0.90;0.80;;;;;;;;;;5118264;28;20227;-65
2022/01/24 04:42:28;;;;;;;0.75;0.75;;;;;;;;;;5118515;28;20195;-63
2022/01/24 04:45:11;;;;;;;0.80;0.80;;;;;;;;;;5118709;28;20257;-63
2022/01/24 04:50:37;;;;;;;0.77;0.77;;;;;;;;;;5118426;28;20640;-64
2022/01/24 04:50:43;;;;;;;0.85;0.85;;;;;;;;;;5118777;28;20206;-63
2022/01/24 04:53:26;;;;;;;0.77;0.77;;;;;;;;;;5118851;28;20206;-63
2022/01/24 04:55:54;;;;;;;1.15;0.90;;;;;;;;;;5117149;28;20293;-64
2022/01/24 04:58:22;;;;;;;0.93;0.93;;;;;;;;;;5117544;28;20209;-64
2022/01/24 05:00:49;;;;;;;1.13;1.00;;;;;;;;;;5117777;28;20222;-65
2022/01/24 05:03:18;;;;;;;0.90;0.90;;;;;;;;;;5117452;28;20491;-63
2022/01/24 05:05:46;;;;;;;0.70;0.70;;;;;;;;;;5117314;28;20199;-63
2022/01/24 05:08:14;;;;;;;1.00;1.00;;;;;;;;;;5116591;28;20187;-63
2022/01/24 05:10:55;;;;;;;0.80;0.80;;;;;;;;;;5117546;28;20195;-64
2022/01/24 05:23:25;;;;;;;1.10;0.90;;;;;;;;;;5117678;28;20481;-64
2022/01/24 05:24:31;;;;;;;0.85;0.85;;;;;;;;;;5097928;28;20195;-64
2022/01/24 05:26:59;;;;;;;0.90;0.90;;;;;;;;;;5099864;28;20198;-66
2022/01/24 05:29:26;;;;;;;1.08;0.90;;;;;;;;;;5116625;28;20195;-63
2022/01/24 05:31:53;;;;;;;1.23;1.10;;;;;;;;;;5115596;28;20199;-65
2022/01/24 05:34:22;;;;;;;1.10;0.95;;;;;;;;;;5117376;28;20217;-65
2022/01/24 05:36:50;;;;;;;0.80;0.80;;;;;;;;;;5116937;28;20206;-65
2022/01/24 05:39:17;;;;;;;1.00;0.90;;;;;;;;;;5116460;28;20522;-65
2022/01/24 05:41:44;;;;;;;1.15;1.05;;;;;;;;;;5117294;28;20203;-65
2022/01/24 05:44:12;;;;;;;1.15;1.05;;;;;;;;;;5116751;28;20217;-65
2022/01/24 05:46:39;;;;;;;1.17;1.08;;;;;;;;;;5116595;28;20202;-64
2022/01/24 05:49:06;;;;;;;1.17;1.08;;;;;;;;;;5116083;28;20214;-64
2022/01/24 05:51:36;;;;;;;0.95;0.95;;;;;;;;;;5116295;28;20199;-65
2022/01/24 05:54:04;;;;;;;1.10;1.00;;;;;;;;;;5115967;28;20199;-65
2022/01/24 05:56:31;;;;;;;1.17;1.08;;;;;;;;;;5115620;28;20758;-65
2022/01/24 05:58:58;;;;;;;1.20;1.10;;;;;;;;;;5114579;28;20221;-65
2022/01/24 06:01:25;;;;;;;1.10;1.00;;;;;;;;;;5114872;28;20625;-65
2022/01/24 06:03:53;;;;;;;1.67;1.20;;;;;;;;;;5115710;28;20214;-65
2022/01/24 06:06:20;;;;;;;1.10;1.00;;;;;;;;;;5115070;28;20620;-65
2022/01/24 06:08:49;;;;;;;1.13;0.95;;;;;;;;;;5115627;28;20205;-65
2022/01/24 06:11:17;;;;;;;1.25;1.15;;;;;;;;;;5115031;28;20218;-65
2022/01/24 06:13:49;;;;;;;1.02;0.93;;;;;;;;;;5114134;28;20199;-65
2022/01/24 06:16:17;;;;;;;1.10;1.00;;;;;;;;;;5113818;28;20195;-65
2022/01/24 06:18:45;;;;;;;1.15;1.05;;;;;;;;;;5114333;28;20203;-64
2022/01/24 06:21:12;;;;;;;1.27;1.05;;;;;;;;;;5114671;28;20222;-63
2022/01/24 06:23:39;;;;;;;1.20;1.10;;;;;;;;;;5114882;28;20206;-65
2022/01/24 06:26:10;;;;;;;1.35;0.90;;;;;;;;;;5116648;28;20203;-65
2022/01/24 06:28:37;;;;;;;1.20;1.10;;;;;;;;;;5117566;28;20287;-65
2022/01/24 06:31:05;;;;;;;1.35;1.17;;;;;;;;;;5117531;28;20187;-65
2022/01/24 06:33:32;;;;;;;1.60;1.10;;;;;;;;;;5118444;27;20591;-64
2022/01/24 06:36:00;;;;;;;1.13;1.00;;;;;;;;;;5118502;28;20204;-63
2022/01/24 06:38:27;;;;;;;1.20;1.10;;;;;;;;;;5117642;28;20203;-63
2022/01/24 06:40:54;;;;;;;1.08;0.98;;;;;;;;;;5117568;28;20218;-64
2022/01/24 06:43:23;;;;;;;1.20;1.10;;;;;;;;;;5116951;28;20210;-65
2022/01/24 06:45:51;;;;;;;1.20;1.10;;;;;;;;;;5117434;28;20605;-64
2022/01/24 06:48:18;;;;;;;1.42;1.30;;;;;;;;;;5118159;28;20217;-65
2022/01/24 06:50:45;;;;;;;1.33;1.20;;;;;;;;;;5118262;28;20210;-65
2022/01/24 06:53:13;;;;;;;1.23;1.13;;;;;;;;;;5118148;28;20199;-66
2022/01/24 06:55:40;;;;;;;1.20;1.10;;;;;;;;;;5117773;28;20214;-65
2022/01/24 06:58:07;;;;;;;1.35;1.17;;;;;;;;;;5118349;28;20199;-65
2022/01/24 07:00:36;;;;;;;1.77;1.40;;;;;;;;;;5117575;28;20223;-65
2022/01/24 07:03:04;;;;;;;1.38;1.20;;;;;;;;;;5102385;28;20187;-65
2022/01/24 07:05:31;;;;;;;1.23;1.13;;;;;;;;;;5117792;28;20199;-65
2022/01/24 07:07:59;;;;;;;1.30;1.20;;;;;;;;;;5117084;28;20206;-65
2022/01/24 07:10:27;;;;;;;1.30;1.20;;;;;;;;;;5118390;28;20203;-65
2022/01/24 07:12:55;;;;;;;1.20;1.10;;;;;;;;;;5118162;28;20234;-65
2022/01/24 07:15:30;;;;;;;1.40;1.30;;;;;;;;;;5101654;28;20214;-65
2022/01/24 07:18:15;;;;;;;1.42;1.33;;;;;;;;;;5117199;28;20228;-65
2022/01/24 07:20:42;;;;;;;1.60;1.40;;;;;;;;;;5118043;28;20234;-63
2022/01/24 07:23:10;;;;;;;1.42;1.33;;;;;;;;;;5118158;28;20688;-65
2022/01/24 07:25:37;;;;;;;1.27;1.17;;;;;;;;;;5117849;27;20226;-64
2022/01/24 07:28:05;;;;;;;1.40;1.30;;;;;;;;;;5118087;28;20207;-65
2022/01/24 07:30:32;;;;;;;1.50;1.40;;;;;;;;;;5117834;28;20206;-65
2022/01/24 07:33:01;;;;;;;1.40;1.27;;;;;;;;;;5117341;28;20210;-65
2022/01/24 07:35:29;;;;;;;1.50;1.40;;;;;;;;;;5118030;28;20199;-64
2022/01/24 07:37:56;;;;;;;1.33;1.13;;;;;;;;;;5117293;28;20578;-65
2022/01/24 07:40:23;;;;;;;1.40;1.30;;;;;;;;;;5117559;28;20234;-65
2022/01/24 07:42:55;;;;;;;1.98;1.70;;;;;;;;;;5117597;28;20206;-65
2022/01/24 07:45:23;;;;;;;1.60;1.42;;;;;;;;;;5117722;28;20529;-65
2022/01/24 07:47:51;;;;;;;1.35;1.25;;;;;;;;;;5117473;28;20198;-65
2022/01/24 07:50:21;;;;;;;1.50;1.40;;;;;;;;;;5117602;28;20601;-65
2022/01/24 07:52:49;;;;;;;1.33;1.23;;;;;;;;;;5116869;28;20206;-65
2022/01/24 07:55:16;;;;;;;1.60;1.50;;;;;;;;;;5116936;28;20202;-65
2022/01/24 07:57:43;;;;;;;1.45;1.35;;;;;;;;;;5116821;28;20199;-63
2022/01/24 08:00:12;;;;;;;1.60;1.50;;;;;;;;;;5117941;28;20207;-64
2022/01/24 08:02:39;;;;;;;1.40;1.27;;;;;;;;;;5117035;28;20203;-63
2022/01/24 08:05:07;;;;;;;1.80;1.70;;;;;;;;;;5117157;28;20191;-63
2022/01/24 08:07:36;;;;;;;1.50;1.40;;;;;;;;;;5116663;28;20206;-63
2022/01/24 08:10:04;;;;;;;1.42;1.33;;;;;;;;;;5117277;28;20608;-65
2022/01/24 08:12:32;;;;;;;1.50;1.40;;;;;;;;;;5116237;28;20232;-65
2022/01/24 08:15:01;;;;;;;1.92;1.73;;;;;;;;;;5116851;28;20201;-65
2022/01/24 08:17:29;;;;;;;1.60;1.50;;;;;;;;;;5115785;28;20214;-64
2022/01/24 08:19:56;;;;;;;1.70;1.60;;;;;;;;;;5116552;28;20199;-65
2022/01/24 08:22:23;;;;;;;1.60;1.50;;;;;;;;;;5117209;28;20226;-64
2022/01/24 08:24:53;;;;;;;1.50;1.40;;;;;;;;;;5116230;28;20207;-64
2022/01/24 08:27:20;;;;;;;1.80;1.70;;;;;;;;;;5116714;28;20187;-65
2022/01/24 08:29:49;;;;;;;1.90;1.80;;;;;;;;;;5116397;28;20205;-65
2022/01/24 08:32:16;;;;;;;1.52;1.42;;;;;;;;;;5116749;28;20221;-64
2022/01/24 08:34:43;;;;;;;1.70;1.60;;;;;;;;;;5115573;28;20206;-63
2022/01/24 08:37:11;;;;;;;1.60;1.50;;;;;;;;;;5116423;28;20206;-65
2022/01/24 08:39:39;;;;;;;1.70;1.60;;;;;;;;;;5115769;28;20234;-64
2022/01/24 08:42:15;;;;;;;1.63;1.52;;;;;;;;;;5116759;28;20496;-65
2022/01/24 08:47:29;;;;;;;1.60;1.50;;;;;;;;;;5114998;28;20490;-64
2022/01/24 08:49:58;;;;;;;1.67;1.58;;;;;;;;;;5114702;28;20199;-64
2022/01/24 08:52:26;;;;;;;1.60;1.50;;;;;;;;;;5115858;28;20543;-65
2022/01/24 08:54:53;;;;;;;1.73;1.63;;;;;;;;;;5114836;28;20210;-64
2022/01/24 08:57:25;;;;;;;1.77;1.63;;;;;;;;;;5115861;28;20221;-64
2022/01/24 08:59:53;;;;;;;1.80;1.70;;;;;;;;;;5115966;28;20253;-64
2022/01/24 09:02:20;;;;;;;1.50;1.40;;;;;;;;;;5114985;28;20215;-65
2022/01/24 09:04:47;;;;;;;1.70;1.50;;;;;;;;;;5115667;28;20210;-65
2022/01/24 09:07:17;;;;;;;1.60;1.50;;;;;;;;;;5115140;28;20199;-64
2022/01/24 09:09:44;;;;;;;1.60;1.48;;;;;;;;;;5113415;28;20199;-64
2022/01/24 09:12:12;;;;;;;1.98;1.85;;;;;;;;;;5115841;28;20207;-65
2022/01/24 09:14:43;;;;;;;3.03;2.70;;;;;;;;;;5115817;28;20226;-64
2022/01/24 09:17:10;;;;;;;5.38;4.53;;;;;;;;;;5115147;28;20195;-66
2022/01/24 09:19:38;;;;;;;6.10;4.65;;;;;;;;;;5114647;28;20199;-64
2022/01/24 09:22:06;;;;;;;7.45;4.78;;;;;;;;;;5115330;28;20555;-64
2022/01/24 09:24:33;;;;;;;7.47;5.22;;;;;;;;;;5115126;28;20206;-64
2022/01/24 09:27:01;;;;;;;7.15;5.10;;;;;;;;;;5115605;28;20206;-64
2022/01/24 09:29:28;;;;;;;5.63;4.70;;;;;;;;;;5116307;28;20202;-64
2022/01/24 09:31:58;;;;;;;9.10;4.50;;;;;;;;;;5115265;28;20467;-64
2022/01/24 09:34:25;;;;;;;10.15;4.60;;;;;;;;;;5114275;28;20195;-64
2022/01/24 09:36:52;;;;;;;7.38;4.75;;;;;;;;;;5114762;28;20218;-64
2022/01/24 09:39:20;;;;;;;6.72;4.97;;;;;;;;;;5114355;28;20231;-64
2022/01/24 09:41:48;;;;;;;6.03;4.57;;;;;;;;;;5114787;28;20210;-64
2022/01/24 09:44:15;;;;;;;6.85;4.88;;;;;;;;;;5114473;28;20206;-64
2022/01/24 09:46:44;;;;;;;5.35;4.68;;;;;;;;;;5114795;28;20203;-64
2022/01/24 09:49:12;;;;;;;7.00;4.70;;;;;;;;;;5115107;28;20279;-64
2022/01/24 09:51:40;;;;;;;5.85;4.63;;;;;;;;;;5113340;28;20195;-64
2022/01/24 09:54:09;;;;;;;6.18;4.55;;;;;;;;;;5113222;28;20229;-64
2022/01/24 09:56:36;;;;;;;6.63;4.25;;;;;;;;;;5113526;28;20290;-64
2022/01/24 09:59:04;;;;;;;6.25;4.57;;;;;;;;;;5114482;28;20190;-64
2022/01/24 10:01:33;;;;;;;6.38;4.20;;;;;;;;;;5117818;28;20740;-64
2022/01/24 10:04:16;;;;;;;6.88;4.72;;;;;;;;;;5118469;28;20251;-63
2022/01/24 10:06:56;;;;;;;7.40;6.68;;;;;;;;;;5117833;28;20202;-63
2022/01/24 10:09:28;;;;;;;7.25;6.10;;;;;;;;;;5117697;28;20288;-62
2022/01/24 10:12:03;;;;;;;7.05;5.60;;;;;;;;;;5117716;27;20199;-63
2022/01/24 10:17:22;;;;;;;6.28;5.07;;;;;;;;;;5101423;28;20194;-63
2022/01/24 10:19:51;;;;;;;8.13;5.22;;;;;;;;;;5116472;28;20203;-63
2022/01/24 10:22:22;;;;;;;5.70;5.07;;;;;;;;;;5117319;27;20219;-63
2022/01/24 10:24:51;;;;;;;5.60;4.90;;;;;;;;;;5116268;28;20203;-63
2022/01/24 10:27:19;;;;;;;6.82;5.20;;;;;;;;;;5116527;28;20199;-65
2022/01/24 10:29:48;;;;;;;5.28;4.43;;;;;;;;;;5116716;28;20230;-64
2022/01/24 10:32:28;;;;;;;5.40;4.70;;;;;;;;;;5116660;28;20203;-65
2022/01/24 10:34:58;;;;;;;5.18;4.68;;;;;;;;;;5114790;28;20210;-64
2022/01/24 10:37:25;;;;;;;5.32;4.38;;;;;;;;;;5117694;28;20222;-64
2022/01/24 10:39:59;;;;;;;5.38;4.40;;;;;;;;;;5116461;28;20650;-64
2022/01/24 10:45:14;;;;;;;4.68;3.95;;;;;;;;;;5114556;28;20606;-64
2022/01/24 10:47:45;;;;;;;4.72;4.20;;;;;;;;;;5117003;28;20198;-65
2022/01/24 10:50:20;;;;;;;5.15;4.20;;;;;;;;;;5117176;28;20697;-66
2022/01/24 10:52:48;;;;;;;4.55;3.97;;;;;;;;;;5113508;28;20190;-65
2022/01/24 10:55:16;;;;;;;6.10;3.70;;;;;;;;;;5116314;28;20191;-64
2022/01/24 10:57:44;;;;;;;4.40;3.55;;;;;;;;;;5116925;28;20199;-64
2022/01/24 11:00:13;;;;;;;3.83;3.45;;;;;;;;;;5117652;28;20210;-64
2022/01/24 11:02:41;;;;;;;3.90;3.40;;;;;;;;;;5118128;27;20226;-64
2022/01/24 11:05:13;;;;;;;5.03;4.30;;;;;;;;;;5116903;28;20202;-66
2022/01/24 11:07:52;;;;;;;5.80;3.70;;;;;;;;;;5116622;28;20241;-63
2022/01/24 11:10:20;;;;;;;5.60;3.53;;;;;;;;;;5095948;28;20204;-63
2022/01/24 11:12:48;;;;;;;6.60;3.67;;;;;;;;;;5104672;28;20195;-63
2022/01/24 11:15:15;;;;;;;5.22;3.83;;;;;;;;;;5116799;28;20211;-64
2022/01/24 11:17:44;;;;;;;4.97;3.50;;;;;;;;;;5116309;28;20199;-63
2022/01/24 11:20:16;;;;;;;5.45;3.17;;;;;;;;;;5116340;28;20199;-64
2022/01/24 11:22:45;;;;;;;3.60;3.03;;;;;;;;;;5117544;28;20219;-63
2022/01/24 11:25:15;;;;;;;5.78;3.30;;;;;;;;;;5117120;28;20195;-63
2022/01/24 11:27:47;;;;;;;3.78;2.90;;;;;;;;;;5116388;28;20198;-63
2022/01/24 11:30:16;;;;;;;4.38;3.00;;;;;;;;;;5096820;28;20234;-63
2022/01/24 11:32:49;;;;;;;3.58;2.90;;;;;;;;;;5103596;28;20195;-64
2022/01/24 11:35:29;;;;;;;4.13;2.80;;;;;;;;;;5115729;28;20187;-63
2022/01/24 11:37:57;;;;;;;3.53;2.92;;;;;;;;;;5104779;28;20203;-63
2022/01/24 11:40:26;;;;;;;4.28;2.70;;;;;;;;;;5114768;28;20225;-64
2022/01/24 11:42:53;;;;;;;4.45;2.60;;;;;;;;;;5115189;28;20306;-64
2022/01/24 11:45:42;;;;;;;3.42;2.80;;;;;;;;;;5115071;28;20191;-64
2022/01/24 11:48:17;;;;;;;2.58;2.25;;;;;;;;;;5115811;28;20248;-64
2022/01/24 11:50:55;;;;;;;5.00;2.78;;;;;;;;;;5115826;28;20224;-64
2022/01/24 11:53:24;;;;;;;2.97;2.63;;;;;;;;;;5114864;28;20249;-64
2022/01/24 11:55:54;;;;;;;2.95;2.20;;;;;;;;;;5114758;28;20195;-65
2022/01/24 11:58:28;;;;;;;2.58;2.10;;;;;;;;;;5114730;28;20203;-64
2022/01/24 12:00:57;;;;;;;4.90;2.00;;;;;;;;;;5115565;28;20199;-64
2022/01/24 12:03:27;;;;;;;3.55;1.92;;;;;;;;;;5113605;28;20226;-62
2022/01/24 12:05:56;;;;;;;1.92;1.80;;;;;;;;;;5114703;28;20195;-62
2022/01/24 12:08:31;;;;;;;2.08;1.88;;;;;;;;;;5114045;27;20203;-64
2022/01/24 12:11:11;;;;;;;2.00;1.80;;;;;;;;;;5115964;28;20194;-65
2022/01/24 12:13:42;;;;;;;1.70;1.60;;;;;;;;;;5098788;28;20495;-64
2022/01/24 12:16:10;;;;;;;2.70;1.70;;;;;;;;;;5115073;28;20214;-64
2022/01/24 12:18:45;;;;;;;1.95;1.75;;;;;;;;;;5114554;28;20199;-63
2022/01/24 12:21:14;;;;;;;2.60;1.58;;;;;;;;;;5115475;28;20206;-64
2022/01/24 12:23:42;;;;;;;2.25;1.30;;;;;;;;;;5113855;28;20245;-64
2022/01/24 12:26:22;;;;;;;2.08;1.20;;;;;;;;;;5114572;28;20206;-64
2022/01/24 12:28:50;;;;;;;1.42;1.20;;;;;;;;;;5114811;28;20198;-64
2022/01/24 12:31:22;;;;;;;2.08;1.70;;;;;;;;;;5105524;28;20198;-64
2022/01/24 12:33:59;;;;;;;1.65;1.52;;;;;;;;;;5114355;28;20195;-65
2022/01/24 12:36:47;;;;;;;2.28;1.50;;;;;;;;;;5115033;28;20214;-64
2022/01/24 12:39:15;;;;;;;2.75;1.70;;;;;;;;;;5114825;28;20219;-64
2022/01/24 12:41:47;;;;;;;2.03;1.30;;;;;;;;;;5115291;28;20601;-64
2022/01/24 12:46:57;;;;;;;2.05;1.38;;;;;;;;;;5114552;28;20194;-64
2022/01/24 12:49:25;;;;;;;2.05;1.38;;;;;;;;;;5115557;28;20392;-64
2022/01/24 12:51:52;;;;;;;1.30;1.20;;;;;;;;;;5114671;28;20199;-64
2022/01/24 12:54:19;;;;;;;2.35;1.45;;;;;;;;;;5114599;28;20207;-64
2022/01/24 12:56:49;;;;;;;1.42;1.02;;;;;;;;;;5114693;28;20207;-64
2022/01/24 12:59:16;;;;;;;1.30;1.20;;;;;;;;;;5114783;28;20203;-62
2022/01/24 13:01:43;;;;;;;1.77;1.20;;;;;;;;;;5113833;28;20225;-63
2022/01/24 13:04:12;;;;;;;1.92;1.20;;;;;;;;;;5097855;28;20195;-64
2022/01/24 13:06:41;;;;;;;1.75;1.20;;;;;;;;;;5114616;28;20752;-64
2022/01/24 13:09:13;;;;;;;1.40;1.10;;;;;;;;;;5114136;28;20302;-64
2022/01/24 13:11:45;;;;;;;1.95;1.13;;;;;;;;;;5113570;28;20199;-62
2022/01/24 13:14:18;;;;;;;1.50;1.27;;;;;;;;;;5113308;28;20203;-64
2022/01/24 13:22:39;;;;;;;5.00;3.15;;;;;;;;;;5071292;28;20623;-64
2022/01/24 13:25:10;;;;;;;4.10;2.70;;;;;;;;;;5070854;28;20207;-64
2022/01/24 13:27:38;;;;;;;3.28;2.45;;;;;;;;;;5092724;28;20616;-64
2022/01/24 13:30:08;;;;;;;4.05;2.83;;;;;;;;;;5113567;28;20202;-64
2022/01/24 13:32:43;;;;;;;3.88;2.35;;;;;;;;;;5113021;28;20751;-63
2022/01/24 13:35:14;;;;;;;3.28;2.45;;;;;;;;;;5114166;28;20267;-63
2022/01/24 13:37:42;;;;;;;3.72;2.50;;;;;;;;;;5113564;28;20198;-64
2022/01/24 13:40:09;;;;;;;2.65;2.20;;;;;;;;;;5114290;28;20241;-64
2022/01/24 13:42:37;;;;;;;5.05;2.20;;;;;;;;;;5113922;28;20218;-65
2022/01/24 13:45:04;;;;;;;4.03;2.08;;;;;;;;;;5114717;28;20206;-64
2022/01/24 13:47:33;;;;;;;4.03;2.10;;;;;;;;;;5113075;28;20225;-65
2022/01/24 13:50:01;;;;;;;3.45;2.10;;;;;;;;;;5113919;28;20492;-64
2022/01/24 13:52:29;;;;;;;4.07;2.00;;;;;;;;;;5113557;28;20206;-64
2022/01/24 13:55:13;;;;;;;2.85;1.80;;;;;;;;;;5105521;28;20196;-64
2022/01/24 13:57:45;;;;;;;3.88;1.88;;;;;;;;;;5107578;28;20199;-64
2022/01/24 14:00:15;;;;;;;2.92;1.67;;;;;;;;;;5114176;28;20658;-64
2022/01/24 14:02:44;;;;;;;3.15;2.00;;;;;;;;;;5113284;28;20713;-64
2022/01/24 14:05:12;;;;;;;4.15;1.90;;;;;;;;;;5114009;28;20195;-63
2022/01/24 14:07:42;;;;;;;4.15;2.03;;;;;;;;;;5113565;28;20199;-64
2022/01/24 14:10:11;;;;;;;2.53;1.63;;;;;;;;;;5112208;28;20198;-65
2022/01/24 14:12:50;;;;;;;1.90;1.77;;;;;;;;;;5109897;28;20246;-65
2022/01/24 14:15:24;;;;;;;3.17;1.83;;;;;;;;;;5111805;28;20218;-64
2022/01/24 14:20:57;;;;;;;3.53;2.17;;;;;;;;;;5086274;28;20270;-63
2022/01/24 14:23:25;;;;;;;2.88;2.05;;;;;;;;;;5112400;28;20226;-64
2022/01/24 14:25:53;;;;;;;3.72;1.90;;;;;;;;;;5112189;28;20191;-64
2022/01/24 14:28:23;;;;;;;3.45;1.92;;;;;;;;;;5112358;28;20714;-64
2022/01/24 14:30:54;;;;;;;2.28;1.77;;;;;;;;;;5112473;28;20248;-64
2022/01/24 14:33:24;;;;;;;2.83;1.90;;;;;;;;;;5097728;28;20191;-63
2022/01/24 14:35:55;;;;;;;2.80;1.90;;;;;;;;;;5113576;28;20203;-64
2022/01/24 14:38:31;;;;;;;1.92;1.50;;;;;;;;;;5104870;28;20206;-63
2022/01/24 14:41:01;;;;;;;2.72;1.92;;;;;;;;;;5113683;28;20198;-64
2022/01/24 14:46:26;;;;;;;3.03;1.65;;;;;;;;;;5071077;28;20594;-64
2022/01/24 14:48:56;;;;;;;3.67;1.60;;;;;;;;;;5105546;28;20621;-62
2022/01/24 14:51:25;;;;;;;2.55;1.65;;;;;;;;;;5116705;28;20261;-62
2022/01/24 14:53:53;;;;;;;2.50;1.45;;;;;;;;;;5115913;28;20191;-64
2022/01/24 14:56:21;;;;;;;2.00;1.50;;;;;;;;;;5115937;28;20233;-64
2022/01/24 14:58:48;;;;;;;2.22;1.38;;;;;;;;;;5116353;28;20206;-63
2022/01/24 15:01:16;;;;;;;1.70;1.33;;;;;;;;;;5115805;28;20209;-64
2022/01/24 15:03:44;;;;;;;2.58;1.35;;;;;;;;;;5115891;28;20226;-64
2022/01/24 15:06:14;;;;;;;2.42;1.40;;;;;;;;;;5116156;28;20203;-64
2022/01/24 15:08:42;;;;;;;2.25;1.60;;;;;;;;;;5114655;28;20191;-64
2022/01/24 15:11:11;;;;;;;2.58;1.48;;;;;;;;;;5116470;28;20209;-63
2022/01/24 15:13:42;;;;;;;2.35;1.60;;;;;;;;;;5115966;28;20272;-64
2022/01/24 15:16:18;;;;;;;1.67;1.40;;;;;;;;;;5115858;28;20203;-63
2022/01/24 15:24:32;;;;;;;1.10;1.00;;;;;;;;;;5115415;28;20245;-65
2022/01/24 15:27:00;;;;;;;2.25;1.10;;;;;;;;;;5116967;28;20735;-65
2022/01/24 15:29:29;;;;;;;1.90;1.25;;;;;;;;;;5116411;28;20202;-63
2022/01/24 15:31:57;;;;;;;1.75;1.00;;;;;;;;;;5115934;28;20206;-64
2022/01/24 15:34:25;;;;;;;1.83;1.10;;;;;;;;;;5115118;28;20205;-64
2022/01/24 15:36:54;;;;;;;2.03;1.23;;;;;;;;;;5113822;28;20442;-64
2022/01/24 15:39:22;;;;;;;3.00;1.23;;;;;;;;;;5113037;28;20214;-64
2022/01/24 15:41:54;;;;;;;1.90;1.02;;;;;;;;;;5115056;28;20207;-64
2022/01/24 15:44:35;;;;;;;2.85;1.20;;;;;;;;;;5114188;28;20276;-63
2022/01/24 15:47:16;;;;;;;3.20;1.10;;;;;;;;;;5113170;28;20214;-64
2022/01/24 15:49:44;;;;;;;1.25;0.90;;;;;;;;;;5113973;28;20667;-64
2022/01/24 15:52:13;;;;;;;1.23;1.13;;;;;;;;;;5115360;28;20331;-64
2022/01/24 15:54:42;;;;;;;1.65;1.08;;;;;;;;;;5115915;28;20290;-64
2022/01/24 15:59:55;;;;;;;2.25;1.13;;;;;;;;;;5115339;28;20593;-64
2022/01/24 16:02:22;;;;;;;1.73;1.15;;;;;;;;;;5115455;28;20195;-64
2022/01/24 16:04:49;;;;;;;1.38;1.08;;;;;;;;;;5115416;28;20231;-64
2022/01/24 16:07:18;;;;;;;1.58;0.90;;;;;;;;;;5115310;28;20500;-65
2022/01/24 16:09:45;;;;;;;4.30;1.20;;;;;;;;;;5112856;28;20269;-64
2022/01/24 16:12:13;;;;;;;1.77;1.20;;;;;;;;;;5115480;28;20190;-63
2022/01/24 16:14:40;;;;;;;1.27;1.10;;;;;;;;;;5115387;28;20199;-64
2022/01/24 16:17:07;;;;;;;1.30;1.00;;;;;;;;;;5114612;28;20202;-64
2022/01/24 16:19:39;;;;;;;2.17;1.00;;;;;;;;;;5115551;28;20309;-64
2022/01/24 16:22:17;;;;;;;1.60;0.90;;;;;;;;;;5114989;28;20199;-64
2022/01/24 16:27:33;;;;;;;1.70;0.90;;;;;;;;;;5114459;28;20214;-64
2022/01/24 16:30:00;;;;;;;1.20;1.10;;;;;;;;;;5114551;28;20471;-64
2022/01/24 16:32:28;;;;;;;1.50;1.00;;;;;;;;;;5114149;28;20214;-64
2022/01/24 16:34:55;;;;;;;1.55;1.15;;;;;;;;;;5113743;28;20202;-64